createdAt,value
2022-12-08T00:00:06.686Z,3.34
2022-12-08T00:02:39.979Z,3.29
2022-12-08T00:05:28.708Z,2.96
2022-12-08T00:08:15.025Z,2.17
2022-12-08T00:11:02.669Z,2.16
2022-12-08T00:14:04.450Z,2.62
2022-12-08T00:16:45.510Z,3.09
2022-12-08T00:19:12.520Z,3.18
2022-12-08T00:21:40.512Z,3.05
2022-12-08T00:24:28.178Z,3.35
2022-12-08T00:27:12.112Z,2.30
2022-12-08T00:29:38.993Z,3.01
2022-12-08T00:32:26.745Z,2.84
2022-12-08T00:35:27.911Z,3.32
2022-12-08T00:38:08.573Z,3.33
2022-12-08T00:40:35.402Z,3.15
2022-12-08T00:43:02.474Z,3.30
2022-12-08T00:45:49.606Z,3.32
2022-12-08T00:48:50.668Z,3.21
2022-12-08T00:51:32.576Z,2.95
2022-12-08T00:54:01.166Z,3.34
2022-12-08T00:56:28.433Z,3.30
2022-12-08T00:59:02.594Z,2.72
2022-12-08T01:02:03.578Z,3.28
2022-12-08T01:04:44.352Z,2.66
2022-12-08T01:07:12.190Z,3.41
2022-12-08T01:09:39.505Z,3.04
2022-12-08T01:12:07.165Z,3.22
2022-12-08T01:14:34.505Z,3.72
2022-12-08T01:17:02.354Z,3.38
2022-12-08T01:19:30.937Z,3.67
2022-12-08T01:21:58.527Z,3.71
2022-12-08T01:24:25.575Z,3.89
2022-12-08T01:27:13.583Z,3.48
2022-12-08T01:30:14.654Z,3.89
2022-12-08T01:32:55.175Z,3.61
2022-12-08T01:35:42.825Z,3.28
2022-12-08T01:38:23.587Z,3.73
2022-12-08T01:40:50.601Z,3.51
2022-12-08T01:43:20.870Z,3.51
2022-12-08T01:45:48.456Z,3.69
2022-12-08T01:48:25.013Z,3.46
2022-12-08T01:50:54.148Z,3.39
2022-12-08T01:53:30.091Z,3.84
2022-12-08T01:56:27.133Z,3.56
2022-12-08T01:59:26.889Z,3.85
2022-12-08T02:01:54.376Z,3.85
2022-12-08T02:04:21.533Z,3.46
2022-12-08T02:06:51.340Z,3.92
2022-12-08T02:09:19.987Z,3.62
2022-12-08T02:11:48.752Z,3.48
2022-12-08T02:14:15.943Z,3.73
2022-12-08T02:17:00.418Z,3.83
2022-12-08T02:19:31.676Z,3.88
2022-12-08T02:22:14.420Z,3.98
2022-12-08T02:24:53.810Z,3.74
2022-12-08T02:27:39.203Z,4.02
2022-12-08T02:30:38.625Z,4.04
2022-12-08T02:34:24.865Z,3.91
2022-12-08T02:37:25.866Z,4.05
2022-12-08T02:40:12.319Z,4.02
2022-12-08T02:42:48.878Z,3.25
2022-12-08T02:45:31.975Z,4.06
2022-12-08T02:48:00.664Z,3.08
2022-12-08T02:50:47.930Z,3.90
2022-12-08T02:53:32.169Z,3.93
2022-12-08T02:56:22.380Z,3.97
2022-12-08T02:58:56.076Z,4.04
2022-12-08T03:01:42.242Z,4.19
2022-12-08T03:04:33.042Z,3.94
2022-12-08T03:07:31.023Z,3.18
2022-12-08T03:10:35.777Z,3.28
2022-12-08T03:13:21.948Z,3.28
2022-12-08T03:15:51.877Z,3.44
2022-12-08T03:18:27.065Z,3.89
2022-12-08T03:20:53.956Z,3.01
2022-12-08T03:23:23.259Z,3.67
2022-12-08T03:26:18.163Z,2.92
2022-12-08T03:28:45.012Z,3.34
2022-12-08T03:31:15.297Z,3.13
2022-12-08T03:33:48.123Z,3.23
2022-12-08T03:36:36.898Z,3.43
2022-12-08T03:39:37.983Z,3.40
2022-12-08T03:42:18.324Z,3.18
2022-12-08T03:44:45.498Z,3.00
2022-12-08T03:47:12.965Z,2.30
2022-12-08T03:50:00.738Z,2.76
2022-12-08T03:52:41.143Z,3.05
2022-12-08T03:55:08.432Z,3.42
2022-12-08T03:57:35.945Z,2.66
2022-12-08T04:00:05.705Z,3.60
2022-12-08T04:02:33.053Z,2.60
2022-12-08T04:05:00.079Z,3.54
2022-12-08T04:07:26.933Z,3.35
2022-12-08T04:09:54.390Z,2.98
2022-12-08T04:12:22.107Z,3.53
2022-12-08T04:14:49.690Z,3.29
2022-12-08T04:17:17.161Z,3.25
2022-12-08T04:20:04.989Z,3.21
2022-12-08T04:23:05.648Z,3.53
2022-12-08T04:25:46.424Z,3.33
2022-12-08T04:28:13.499Z,3.06
2022-12-08T04:30:41.361Z,3.15
2022-12-08T04:33:08.354Z,3.18
2022-12-08T04:35:55.983Z,2.99
2022-12-08T04:38:37.031Z,2.13
2022-12-08T04:41:04.062Z,2.84
2022-12-08T04:43:32.211Z,3.51
2022-12-08T04:45:59.237Z,3.25
2022-12-08T04:48:26.171Z,3.27
2022-12-08T04:50:53.305Z,3.44
2022-12-08T04:53:46.132Z,3.46
2022-12-08T04:56:47.712Z,3.20
2022-12-08T04:59:28.271Z,3.12
2022-12-08T05:01:55.465Z,3.33
2022-12-08T05:04:22.507Z,3.45
2022-12-08T05:06:49.493Z,3.50
2022-12-08T05:09:16.353Z,3.34
2022-12-08T05:11:48.604Z,3.08
2022-12-08T05:14:17.433Z,3.11
2022-12-08T05:16:45.101Z,3.56
2022-12-08T05:19:12.897Z,3.35
2022-12-08T05:21:40.028Z,3.13
2022-12-08T05:24:07.224Z,3.47
2022-12-08T05:26:34.147Z,3.13
2022-12-08T05:29:21.688Z,3.02
2022-12-08T05:32:05.972Z,3.39
2022-12-08T05:34:32.914Z,3.37
2022-12-08T05:37:19.712Z,3.21
2022-12-08T05:40:00.879Z,2.92
2022-12-08T05:42:27.990Z,2.24
2022-12-08T05:44:54.837Z,2.74
2022-12-08T05:47:21.870Z,3.11
2022-12-08T05:49:48.766Z,3.15
2022-12-08T05:52:16.970Z,3.28
2022-12-08T05:54:44.343Z,2.88
2022-12-08T05:57:11.595Z,3.02
2022-12-08T05:59:39.746Z,3.36
2022-12-08T06:02:26.888Z,3.18
2022-12-08T06:05:27.682Z,3.07
2022-12-08T06:08:08.626Z,3.01
2022-12-08T06:10:35.722Z,3.36
2022-12-08T06:13:02.628Z,3.08
2022-12-08T06:15:29.498Z,3.37
2022-12-08T06:17:56.339Z,3.14
2022-12-08T06:20:43.737Z,2.54
2022-12-08T06:23:24.407Z,3.00
2022-12-08T06:25:51.265Z,2.42
2022-12-08T06:28:18.178Z,2.72
2022-12-08T06:30:45.042Z,3.03
2022-12-08T06:33:31.712Z,2.86
2022-12-08T06:36:34.765Z,3.00
2022-12-08T06:39:15.279Z,3.20
2022-12-08T06:42:00.851Z,3.02
2022-12-08T06:44:47.709Z,2.39
2022-12-08T06:47:28.254Z,2.87
2022-12-08T06:50:16.155Z,3.09
2022-12-08T06:53:04.837Z,2.75
2022-12-08T06:58:20.664Z,1.99
2022-12-08T07:00:48.069Z,2.84
2022-12-08T07:03:15.187Z,2.85
2022-12-08T07:05:42.053Z,2.97
2022-12-08T07:08:09.958Z,2.90
2022-12-08T07:10:56.745Z,3.02
2022-12-08T07:13:57.737Z,3.27
2022-12-08T07:16:39.413Z,2.82
2022-12-08T07:19:06.709Z,2.78
2022-12-08T07:21:33.779Z,2.01
2022-12-08T07:24:00.661Z,2.91
2022-12-08T07:26:27.697Z,2.66
2022-12-08T07:28:54.506Z,3.52
2022-12-08T07:31:37.743Z,3.68
2022-12-08T07:34:38.044Z,3.12
2022-12-08T07:37:25.026Z,2.67
2022-12-08T07:40:08.331Z,3.07
2022-12-08T07:42:56.855Z,3.01
2022-12-08T07:45:51.858Z,3.19
2022-12-08T07:48:32.647Z,3.58
2022-12-08T07:51:04.448Z,3.58
2022-12-08T07:53:32.253Z,3.72
2022-12-08T07:55:59.451Z,3.91
2022-12-08T07:58:27.663Z,3.25
2022-12-08T08:00:54.716Z,3.69
2022-12-08T08:03:22.437Z,3.71
2022-12-08T08:05:50.224Z,4.25
2022-12-08T08:08:17.907Z,4.42
2022-12-08T08:10:47.008Z,4.30
2022-12-08T08:13:33.939Z,3.67
2022-12-08T08:16:38.402Z,3.89
2022-12-08T08:19:20.015Z,3.93
2022-12-08T08:21:47.951Z,3.83
2022-12-08T08:24:15.427Z,3.86
2022-12-08T08:26:43.550Z,3.06
2022-12-08T08:29:10.592Z,3.64
2022-12-08T08:31:37.759Z,3.57
2022-12-08T08:34:06.458Z,3.60
2022-12-08T08:36:53.828Z,3.66
2022-12-08T08:39:34.439Z,4.07
2022-12-08T08:42:01.490Z,3.91
2022-12-08T08:44:48.853Z,4.11
2022-12-08T08:47:29.806Z,3.73
2022-12-08T08:49:56.781Z,3.80
2022-12-08T08:52:23.719Z,3.78
2022-12-08T08:54:50.524Z,3.71
2022-12-08T08:57:25.044Z,3.75
2022-12-08T08:59:52.793Z,2.75
2022-12-08T09:02:20.208Z,4.06
2022-12-08T09:04:47.544Z,3.45
2022-12-08T09:07:14.977Z,4.43
2022-12-08T09:09:42.119Z,4.65
2022-12-08T09:12:09.841Z,4.78
2022-12-08T09:14:37.359Z,4.39
2022-12-08T09:17:24.886Z,4.06
2022-12-08T09:20:26.702Z,4.78
2022-12-08T09:23:07.640Z,4.91
2022-12-08T09:25:35.209Z,4.63
2022-12-08T09:28:02.932Z,3.84
2022-12-08T09:30:30.685Z,3.62
2022-12-08T09:33:17.851Z,3.93
2022-12-08T09:36:18.914Z,4.18
2022-12-08T09:38:59.574Z,4.50
2022-12-08T09:41:50.280Z,4.90
2022-12-08T09:44:35.870Z,5.38
2022-12-08T09:47:09.185Z,4.06
2022-12-08T09:50:03.391Z,4.92
2022-12-08T09:52:59.955Z,5.46
2022-12-08T09:56:05.864Z,5.05
2022-12-08T09:58:58.569Z,5.31
2022-12-08T10:01:32.252Z,5.25
2022-12-08T10:04:00.576Z,5.37
2022-12-08T10:06:48.257Z,5.34
2022-12-08T10:09:25.081Z,5.64
2022-12-08T10:12:08.213Z,5.07
2022-12-08T10:14:51.828Z,5.48
2022-12-08T10:17:31.897Z,5.94
2022-12-08T10:20:29.836Z,6.38
2022-12-08T10:23:53.192Z,5.74
2022-12-08T10:26:33.446Z,6.00
2022-12-08T10:29:02.910Z,6.25
2022-12-08T10:31:31.363Z,6.65
2022-12-08T10:34:14.878Z,6.92
2022-12-08T10:37:06.192Z,6.67
2022-12-08T10:40:23.956Z,4.84
2022-12-08T10:43:07.042Z,5.79
2022-12-08T10:45:41.795Z,6.06
2022-12-08T10:48:33.473Z,6.03
2022-12-08T10:51:00.670Z,5.97
2022-12-08T10:53:33.216Z,5.91
2022-12-08T10:56:03.059Z,6.13
2022-12-08T10:58:59.331Z,6.06
2022-12-08T11:01:36.631Z,6.07
2022-12-08T11:04:07.156Z,5.87
2022-12-08T11:06:40.025Z,5.81
2022-12-08T11:09:24.568Z,5.13
2022-12-08T11:12:21.848Z,5.52
2022-12-08T11:15:05.777Z,5.79
2022-12-08T11:17:39.629Z,5.64
2022-12-08T11:20:10.009Z,5.68
2022-12-08T11:22:58.887Z,5.76
2022-12-08T11:26:01.391Z,5.15
2022-12-08T11:28:42.938Z,5.33
2022-12-08T11:31:38.359Z,5.33
2022-12-08T11:34:07.016Z,5.47
2022-12-08T11:36:54.240Z,5.61
2022-12-08T11:39:42.252Z,5.89
2022-12-08T11:42:24.909Z,6.50
2022-12-08T11:45:14.750Z,6.39
2022-12-08T11:47:55.815Z,6.74
2022-12-08T11:50:28.512Z,6.72
2022-12-08T11:52:57.168Z,7.24
2022-12-08T11:55:50.175Z,6.50
2022-12-08T11:58:38.140Z,6.52
2022-12-08T12:01:05.384Z,6.75
2022-12-08T12:03:41.394Z,6.94
2022-12-08T12:06:54.323Z,7.18
2022-12-08T12:09:37.076Z,6.93
2022-12-08T12:12:44.906Z,6.90
2022-12-08T12:16:04.130Z,6.56
2022-12-08T12:18:46.261Z,5.76
2022-12-08T12:21:18.407Z,5.81
2022-12-08T12:24:03.766Z,5.99
2022-12-08T12:26:38.188Z,5.55
2022-12-08T12:29:12.285Z,6.23
2022-12-08T12:31:43.558Z,6.07
2022-12-08T12:34:27.770Z,6.24
2022-12-08T12:37:24.907Z,6.35
2022-12-08T12:40:27.029Z,6.39
2022-12-08T12:43:42.172Z,6.23
2022-12-08T12:46:26.686Z,6.31
2022-12-08T12:48:53.740Z,6.21
2022-12-08T12:51:47.780Z,6.59
2022-12-08T12:54:22.356Z,6.50
2022-12-08T12:56:55.153Z,5.42
2022-12-08T12:59:29.599Z,5.95
2022-12-08T13:02:16.958Z,5.70
2022-12-08T13:05:28.989Z,5.93
2022-12-08T13:08:25.229Z,6.26
2022-12-08T13:11:09.303Z,6.57
2022-12-08T13:13:37.887Z,6.37
2022-12-08T13:16:24.954Z,6.61
2022-12-08T13:19:16.064Z,6.73
2022-12-08T13:22:02.969Z,6.06
2022-12-08T13:25:04.048Z,5.42
2022-12-08T13:27:53.180Z,6.42
2022-12-08T13:30:42.613Z,6.24
2022-12-08T13:33:18.055Z,6.03
2022-12-08T13:36:13.950Z,5.90
2022-12-08T13:38:58.337Z,6.16
2022-12-08T13:41:35.973Z,5.93
2022-12-08T13:47:35.292Z,6.38
2022-12-08T13:52:29.491Z,7.05
2022-12-08T13:57:24.465Z,6.08
2022-12-08T13:59:51.475Z,6.54
2022-12-08T14:02:48.071Z,6.86
2022-12-08T14:06:12.879Z,6.69
2022-12-08T14:09:02.629Z,7.15
2022-12-08T14:11:38.463Z,7.18
2022-12-08T14:14:05.394Z,6.51
2022-12-08T14:16:48.952Z,6.36
2022-12-08T14:19:19.335Z,6.83
2022-12-08T14:21:57.948Z,6.70
2022-12-08T14:24:44.954Z,6.57
2022-12-08T14:27:27.438Z,6.47
2022-12-08T14:30:01.408Z,6.46
2022-12-08T14:32:34.236Z,6.66
2022-12-08T14:35:20.992Z,6.85
2022-12-08T14:38:04.378Z,6.65
2022-12-08T14:40:37.223Z,6.52
2022-12-08T14:43:10.235Z,6.70
2022-12-08T14:45:43.211Z,6.54
2022-12-08T14:48:28.191Z,6.46
2022-12-08T14:50:58.728Z,6.15
2022-12-08T14:53:26.898Z,5.96
2022-12-08T14:55:54.767Z,5.68
2022-12-08T14:58:28.914Z,5.62
2022-12-08T15:01:00.466Z,5.53
2022-12-08T15:03:31.177Z,5.93
2022-12-08T15:06:06.501Z,5.72
2022-12-08T15:08:34.955Z,6.01
2022-12-08T15:11:24.025Z,5.41
2022-12-08T15:13:53.381Z,5.95
2022-12-08T15:16:38.392Z,5.74
2022-12-08T15:19:16.303Z,5.78
2022-12-08T15:21:46.034Z,5.77
2022-12-08T15:24:35.011Z,5.43
2022-12-08T15:27:49.532Z,5.68
2022-12-08T15:30:31.243Z,5.59
2022-12-08T15:32:58.243Z,5.68
2022-12-08T15:35:46.472Z,5.51
2022-12-08T15:38:29.508Z,5.55
2022-12-08T15:40:58.763Z,5.65
2022-12-08T15:43:26.433Z,5.35
2022-12-08T15:45:59.657Z,5.94
2022-12-08T15:48:30.566Z,5.94
2022-12-08T15:50:57.803Z,5.82
2022-12-08T15:53:45.044Z,5.72
2022-12-08T15:56:27.885Z,5.63
2022-12-08T15:59:15.007Z,5.69
2022-12-08T16:01:55.689Z,5.75
2022-12-08T16:08:29.989Z,5.54
2022-12-08T16:17:19.409Z,5.03
2022-12-08T16:19:46.318Z,5.49
2022-12-08T16:25:19.289Z,5.59
2022-12-08T16:28:36.846Z,5.76
2022-12-08T16:30:59.061Z,5.59
2022-12-08T16:34:00.044Z,5.75
2022-12-08T16:37:01.023Z,5.42
2022-12-08T16:39:45.749Z,5.55
2022-12-08T16:42:40.292Z,5.67
2022-12-08T16:45:31.096Z,5.57
2022-12-08T16:48:15.042Z,5.57
2022-12-08T16:50:45.713Z,5.81
2022-12-08T16:53:13.337Z,5.72
2022-12-08T16:55:40.817Z,5.43
2022-12-08T16:58:07.749Z,5.45
2022-12-08T17:00:55.068Z,5.83
2022-12-08T17:03:35.721Z,5.44
2022-12-08T17:06:08.804Z,5.84
2022-12-08T17:08:35.863Z,5.35
2022-12-08T17:11:08.695Z,4.84
2022-12-08T17:13:36.948Z,4.89
2022-12-08T17:16:12.568Z,5.04
2022-12-08T17:18:40.120Z,5.80
2022-12-08T17:21:11.992Z,5.76
2022-12-08T17:23:59.098Z,5.65
2022-12-08T17:26:39.658Z,5.52
2022-12-08T17:29:06.561Z,5.70
2022-12-08T17:31:33.991Z,5.21
2022-12-08T17:34:05.836Z,5.41
2022-12-08T17:36:53.071Z,5.49
2022-12-08T17:39:54.065Z,5.60
2022-12-08T17:42:55.093Z,5.64
2022-12-08T17:45:58.336Z,5.73
2022-12-08T17:48:39.171Z,5.42
2022-12-08T17:51:09.573Z,5.78
2022-12-08T17:53:37.632Z,5.64
2022-12-08T17:56:04.987Z,5.57
2022-12-08T17:58:31.843Z,5.40
2022-12-08T18:00:58.842Z,5.40
2022-12-08T18:03:25.816Z,5.59
2022-12-08T18:05:52.715Z,5.39
2022-12-08T18:08:40.093Z,5.64
2022-12-08T18:11:29.516Z,5.77
2022-12-08T18:14:18.379Z,5.50
2022-12-08T18:16:59.968Z,5.64
2022-12-08T18:19:27.926Z,5.36
2022-12-08T18:21:54.949Z,5.72
2022-12-08T18:24:23.429Z,5.62
2022-12-08T18:26:52.682Z,5.75
2022-12-08T18:29:20.912Z,5.64
2022-12-08T18:31:47.966Z,5.50
2022-12-08T18:34:14.938Z,4.67
2022-12-08T18:37:02.118Z,5.38
2022-12-08T18:39:42.789Z,5.47
2022-12-08T18:42:25.807Z,4.95
2022-12-08T18:45:17.893Z,5.27
2022-12-08T18:48:21.094Z,5.61
2022-12-08T18:51:03.757Z,5.78
2022-12-08T18:53:31.625Z,5.38
2022-12-08T18:55:58.575Z,5.41
2022-12-08T18:58:25.598Z,5.65
2022-12-08T19:00:52.469Z,5.51
2022-12-08T19:03:19.337Z,5.38
2022-12-08T19:05:46.611Z,5.60
2022-12-08T19:08:34.178Z,5.74
2022-12-08T19:11:23.434Z,5.65
2022-12-08T19:13:51.256Z,5.79
2022-12-08T19:16:38.147Z,5.80
2022-12-08T19:19:18.812Z,5.30
2022-12-08T19:21:46.649Z,5.76
2022-12-08T19:24:34.117Z,5.76
2022-12-08T19:27:14.679Z,5.80
2022-12-08T19:29:41.606Z,5.49
2022-12-08T19:32:08.724Z,5.15
2022-12-08T19:34:35.780Z,5.35
2022-12-08T19:37:23.131Z,5.44
2022-12-08T19:40:23.278Z,5.66
2022-12-08T19:43:08.820Z,5.68
2022-12-08T19:45:56.223Z,5.47
2022-12-08T19:48:57.132Z,5.50
2022-12-08T19:51:50.793Z,5.53
2022-12-08T19:54:17.656Z,5.52
2022-12-08T19:56:44.619Z,5.17
2022-12-08T19:59:11.826Z,5.70
2022-12-08T20:01:38.848Z,5.45
2022-12-08T20:04:05.786Z,5.24
2022-12-08T20:06:53.174Z,5.57
2022-12-08T20:09:54.166Z,5.46
2022-12-08T20:12:34.873Z,5.76
2022-12-08T20:15:01.906Z,5.90
2022-12-08T20:17:28.876Z,5.82
2022-12-08T20:19:55.806Z,5.06
2022-12-08T20:22:43.178Z,5.59
2022-12-08T20:25:23.846Z,5.75
2022-12-08T20:27:50.763Z,5.89
2022-12-08T20:30:17.761Z,5.70
2022-12-08T20:32:46.057Z,5.80
2022-12-08T20:35:33.205Z,5.39
2022-12-08T20:38:14.336Z,5.47
2022-12-08T20:40:43.780Z,5.49
2022-12-08T20:43:10.896Z,5.51
2022-12-08T20:45:37.894Z,5.37
2022-12-08T20:48:05.378Z,5.42
2022-12-08T20:50:32.469Z,5.03
2022-12-08T20:53:20.356Z,5.56
2022-12-08T20:56:21.274Z,5.55
2022-12-08T20:59:13.446Z,5.49
2022-12-08T21:01:41.141Z,5.91
2022-12-08T21:04:11.807Z,5.59
2022-12-08T21:06:59.643Z,5.48
2022-12-08T21:10:00.278Z,5.93
2022-12-08T21:12:41.163Z,5.26
2022-12-08T21:15:09.928Z,5.63
2022-12-08T21:17:37.224Z,5.41
2022-12-08T21:20:06.611Z,5.56
2022-12-08T21:22:34.085Z,5.37
2022-12-08T21:25:01.056Z,4.46
2022-12-08T21:27:28.118Z,4.90
2022-12-08T21:29:55.544Z,5.79
2022-12-08T21:32:27.212Z,5.25
2022-12-08T21:35:19.266Z,5.98
2022-12-08T21:38:06.770Z,5.14
2022-12-08T21:40:35.324Z,5.36
2022-12-08T21:43:03.822Z,5.73
2022-12-08T21:45:51.244Z,5.30
2022-12-08T21:48:32.929Z,5.48
2022-12-08T21:51:05.479Z,5.15
2022-12-08T21:53:32.670Z,5.05
2022-12-08T21:56:00.164Z,5.47
2022-12-08T21:58:27.462Z,5.39
2022-12-08T22:00:55.713Z,5.67
2022-12-08T22:03:22.965Z,5.61
2022-12-08T22:05:50.260Z,5.38
2022-12-08T22:08:17.424Z,5.45
2022-12-08T22:10:48.885Z,4.80
2022-12-08T22:13:15.910Z,5.63
2022-12-08T22:16:14.463Z,5.60
2022-12-08T22:19:15.355Z,5.61
2022-12-08T22:21:55.914Z,4.84
2022-12-08T22:24:23.372Z,5.37
2022-12-08T22:26:50.629Z,5.54
2022-12-08T22:29:17.625Z,4.96
2022-12-08T22:31:44.709Z,5.70
2022-12-08T22:34:12.537Z,5.05
2022-12-08T22:36:59.199Z,5.28
2022-12-08T22:39:40.599Z,5.32
2022-12-08T22:42:07.727Z,4.61
2022-12-08T22:44:35.024Z,5.03
2022-12-08T22:47:22.545Z,4.35
2022-12-08T22:50:04.827Z,4.55
2022-12-08T22:52:32.679Z,5.31
2022-12-08T22:55:00.088Z,4.98
2022-12-08T22:57:28.632Z,4.67
2022-12-08T22:59:55.746Z,5.09
2022-12-08T23:02:23.060Z,4.46
2022-12-08T23:04:50.624Z,5.22
2022-12-08T23:07:18.176Z,5.32
2022-12-08T23:09:45.712Z,5.02
2022-12-08T23:12:13.236Z,4.80
2022-12-08T23:14:40.419Z,4.97
2022-12-08T23:17:07.556Z,4.43
2022-12-08T23:19:55.387Z,4.45
2022-12-08T23:22:56.338Z,4.52
2022-12-08T23:25:41.396Z,4.09
2022-12-08T23:28:10.367Z,4.80
2022-12-08T23:30:40.777Z,4.75
2022-12-08T23:33:08.498Z,4.03
2022-12-08T23:35:55.791Z,4.12
2022-12-08T23:38:56.248Z,4.80
2022-12-08T23:41:37.190Z,4.05
2022-12-08T23:44:05.056Z,4.92
2022-12-08T23:46:32.668Z,4.87
2022-12-08T23:48:59.820Z,4.75
2022-12-08T23:51:27.548Z,4.75
2022-12-08T23:54:14.294Z,4.44
2022-12-08T23:56:55.494Z,4.14
2022-12-08T23:59:23.969Z,4.71
